Terminal Aerodrome Forecast
Issued by NWS Huntsville, AL

Home | Current Version | Previous Version | Text Only | Print | Product List | Glossary On
Versions: 1 2 3 4 5 6 7 8 9 10 11 12
000
FTUS44 KHUN 211120
TAFHSV
TAF
KHSV 211120Z 2112/2212 VRB03KT P6SM FEW060 FEW250
     FM211500 15005KT P6SM SCT040
     FM220000 VRB04KT P6SM FEW040=

USA.gov is the U.S. government's official web portal to all federal, state and local government web resources and services.